createdAt,value
2023-01-04T00:01:11.725Z,12.03
2023-01-04T00:03:38.773Z,10.93
2023-01-04T00:06:07.688Z,11.70
2023-01-04T00:08:34.615Z,13.77
2023-01-04T00:11:07.887Z,11.30
2023-01-04T00:13:35.018Z,11.70
2023-01-04T00:16:08.332Z,10.77
2023-01-04T00:18:37.137Z,11.03
2023-01-04T00:21:08.190Z,11.77
2023-01-04T00:23:34.974Z,11.23
2023-01-04T00:26:01.983Z,12.67
2023-01-04T00:28:28.713Z,11.60
2023-01-04T00:30:55.809Z,12.00
2023-01-04T00:33:22.592Z,11.43
2023-01-04T00:35:49.576Z,11.00
2023-01-04T00:38:16.386Z,11.93
2023-01-04T00:40:43.366Z,10.97
2023-01-04T00:43:10.125Z,11.40
2023-01-04T00:45:37.121Z,12.43
2023-01-04T00:48:04.110Z,12.23
2023-01-04T00:50:31.109Z,11.90
2023-01-04T00:52:57.872Z,12.77
2023-01-04T00:55:24.940Z,13.47
2023-01-04T00:57:51.668Z,11.80
2023-01-04T01:00:18.755Z,13.87
2023-01-04T01:02:45.600Z,13.37
2023-01-04T01:05:13.025Z,13.50
2023-01-04T01:07:39.721Z,13.43
2023-01-04T01:10:07.174Z,13.33
2023-01-04T01:12:34.004Z,12.50
2023-01-04T01:15:01.175Z,12.57
2023-01-04T01:17:28.060Z,12.83
2023-01-04T01:19:55.109Z,13.43
2023-01-04T01:22:21.900Z,13.17
2023-01-04T01:24:49.773Z,13.57
2023-01-04T01:27:16.719Z,12.70
2023-01-04T01:29:43.971Z,12.50
2023-01-04T01:32:10.735Z,13.10
2023-01-04T01:34:37.838Z,12.00
2023-01-04T01:37:04.564Z,13.40
2023-01-04T01:39:32.083Z,12.83
2023-01-04T01:41:59.632Z,12.10
2023-01-04T01:44:42.053Z,12.70
2023-01-04T01:47:19.126Z,12.60
2023-01-04T01:49:51.007Z,11.77
2023-01-04T01:52:23.147Z,11.70
2023-01-04T01:54:59.115Z,11.60
2023-01-04T01:57:29.498Z,11.27
2023-01-04T02:00:01.402Z,12.27
2023-01-04T02:02:28.653Z,12.20
2023-01-04T02:04:56.771Z,11.83
2023-01-04T02:07:27.403Z,11.40
2023-01-04T02:09:56.004Z,12.53
2023-01-04T02:12:22.694Z,12.47
2023-01-04T02:14:50.915Z,13.47
2023-01-04T02:17:34.273Z,11.47
2023-01-04T02:20:36.282Z,12.87
2023-01-04T02:23:18.087Z,12.20
2023-01-04T02:26:36.284Z,12.10
2023-01-04T02:29:42.611Z,13.53
2023-01-04T02:32:18.108Z,13.63
2023-01-04T02:34:59.061Z,12.43
2023-01-04T02:37:38.343Z,13.90
2023-01-04T02:40:23.472Z,13.33
2023-01-04T02:43:19.432Z,13.17
2023-01-04T02:45:55.749Z,13.43
2023-01-04T02:48:41.422Z,14.07
2023-01-04T02:51:33.385Z,14.20
2023-01-04T02:54:04.927Z,13.67
2023-01-04T02:56:44.949Z,14.00
2023-01-04T02:59:23.916Z,13.90
2023-01-04T03:02:36.161Z,15.97
2023-01-04T03:05:38.800Z,15.13
2023-01-04T03:08:34.881Z,16.10
2023-01-04T03:11:31.642Z,16.77
2023-01-04T03:14:30.995Z,16.03
2023-01-04T03:16:52.485Z,15.83
2023-01-04T03:19:41.201Z,16.50
2023-01-04T03:22:30.766Z,15.83
2023-01-04T03:25:17.757Z,16.80
2023-01-04T03:28:05.808Z,15.37
2023-01-04T03:30:53.926Z,14.47
2023-01-04T03:33:40.634Z,13.93
2023-01-04T03:36:07.526Z,15.63
2023-01-04T03:39:09.055Z,14.33
2023-01-04T03:42:04.026Z,15.70
2023-01-04T03:45:19.087Z,16.20
2023-01-04T03:48:24.778Z,15.03
2023-01-04T03:51:04.632Z,15.63
2023-01-04T03:53:37.685Z,15.93
2023-01-04T03:56:06.605Z,14.80
2023-01-04T03:58:33.731Z,15.43
2023-01-04T04:01:04.430Z,16.33
2023-01-04T04:03:50.993Z,16.93
2023-01-04T04:06:36.741Z,17.03
2023-01-04T04:09:04.308Z,17.97
2023-01-04T04:11:31.434Z,16.37
2023-01-04T04:13:59.568Z,18.33
2023-01-04T04:16:27.812Z,18.03
2023-01-04T04:18:55.236Z,18.03
2023-01-04T04:21:22.382Z,17.73
2023-01-04T04:23:49.269Z,18.17
2023-01-04T04:26:16.887Z,17.30
2023-01-04T04:28:43.876Z,16.77
2023-01-04T04:31:11.014Z,17.07
2023-01-04T04:33:37.899Z,16.90
2023-01-04T04:36:05.805Z,17.13
2023-01-04T04:38:32.585Z,17.27
2023-01-04T04:41:18.251Z,17.33
2023-01-04T04:43:45.058Z,18.63
2023-01-04T04:46:12.924Z,18.50
2023-01-04T04:48:39.727Z,19.53
2023-01-04T04:51:06.786Z,20.70
2023-01-04T04:53:33.653Z,20.83
2023-01-04T04:56:00.684Z,22.13
2023-01-04T04:58:27.567Z,21.03
2023-01-04T05:00:54.609Z,21.33
2023-01-04T05:03:21.589Z,22.23
2023-01-04T05:05:48.648Z,21.30
2023-01-04T05:08:15.408Z,22.17
2023-01-04T05:10:42.388Z,23.40
2023-01-04T05:13:13.107Z,24.93
2023-01-04T05:15:52.556Z,25.33
2023-01-04T05:18:21.275Z,27.70
2023-01-04T05:20:49.024Z,28.63
2023-01-04T05:23:18.281Z,28.60
2023-01-04T05:25:45.707Z,29.10
2023-01-04T05:28:12.616Z,31.10
2023-01-04T05:30:53.432Z,31.83
2023-01-04T05:33:29.163Z,33.20
2023-01-04T05:35:58.576Z,33.17
2023-01-04T05:38:25.963Z,32.03
2023-01-04T05:40:53.647Z,36.43
2023-01-04T05:43:22.254Z,37.60
2023-01-04T05:45:55.799Z,39.03
2023-01-04T05:48:24.794Z,38.43
2023-01-04T05:50:53.135Z,39.57
2023-01-04T05:53:20.037Z,34.30
2023-01-04T05:55:50.038Z,34.67
2023-01-04T05:58:16.865Z,31.93
2023-01-04T06:00:44.036Z,28.17
2023-01-04T06:03:10.942Z,29.93
2023-01-04T06:05:38.220Z,29.73
2023-01-04T06:08:05.400Z,28.50
2023-01-04T06:10:32.444Z,29.27
2023-01-04T06:12:59.291Z,28.13
2023-01-04T06:15:26.303Z,28.13
2023-01-04T06:17:53.152Z,27.00
2023-01-04T06:20:20.263Z,27.63
2023-01-04T06:22:47.035Z,28.37
2023-01-04T06:25:14.430Z,28.97
2023-01-04T06:27:41.214Z,28.60
2023-01-04T06:30:08.841Z,29.40
2023-01-04T06:32:35.715Z,29.90
2023-01-04T06:35:02.772Z,31.03
2023-01-04T06:37:29.586Z,30.93
2023-01-04T06:39:56.612Z,30.77
2023-01-04T06:42:42.142Z,33.07
2023-01-04T06:45:09.589Z,35.57
2023-01-04T06:47:36.569Z,32.67
2023-01-04T06:50:05.031Z,34.37
2023-01-04T06:52:31.987Z,36.17
2023-01-04T06:54:59.035Z,37.00
2023-01-04T06:57:26.169Z,35.80
2023-01-04T06:59:53.319Z,38.83
2023-01-04T07:02:20.268Z,37.07
2023-01-04T07:04:47.435Z,39.70
2023-01-04T07:07:14.274Z,38.43
2023-01-04T07:09:41.338Z,41.37
2023-01-04T07:12:08.136Z,41.60
2023-01-04T07:14:35.263Z,40.80
2023-01-04T07:17:02.006Z,41.07
2023-01-04T07:19:29.058Z,38.87
2023-01-04T07:21:56.026Z,41.00
2023-01-04T07:24:28.077Z,40.90
2023-01-04T07:26:56.911Z,39.93
2023-01-04T07:29:23.998Z,40.00
2023-01-04T07:31:51.882Z,43.40
2023-01-04T07:34:22.319Z,40.60
2023-01-04T07:36:49.454Z,41.47
2023-01-04T07:39:18.064Z,41.57
2023-01-04T07:41:45.664Z,40.90
2023-01-04T07:44:15.123Z,38.20
2023-01-04T07:46:42.760Z,37.00
2023-01-04T07:49:17.835Z,37.63
2023-01-04T07:51:46.943Z,38.93
2023-01-04T07:54:15.388Z,39.73
2023-01-04T07:56:42.886Z,39.63
2023-01-04T07:59:11.349Z,38.60
2023-01-04T08:01:38.939Z,35.37
2023-01-04T08:04:07.799Z,33.30
2023-01-04T08:06:36.027Z,36.20
2023-01-04T08:09:04.028Z,32.87
2023-01-04T08:11:30.794Z,32.40
2023-01-04T08:13:57.983Z,32.23
2023-01-04T08:16:29.003Z,36.10
2023-01-04T08:18:58.128Z,34.03
2023-01-04T08:21:26.157Z,33.63
2023-01-04T08:23:54.144Z,29.73
2023-01-04T08:26:21.706Z,28.20
2023-01-04T08:28:50.178Z,28.53
2023-01-04T08:31:19.733Z,28.57
2023-01-04T08:33:47.990Z,27.47
2023-01-04T08:36:22.585Z,28.50
2023-01-04T08:38:59.827Z,26.73
2023-01-04T08:41:56.676Z,28.70
2023-01-04T08:44:15.389Z,26.53
2023-01-04T08:46:42.371Z,27.30
2023-01-04T08:49:09.652Z,28.10
2023-01-04T08:51:36.357Z,28.63
2023-01-04T08:54:03.781Z,28.30
2023-01-04T08:56:30.548Z,27.97
2023-01-04T08:58:57.577Z,26.53
2023-01-04T09:01:24.477Z,27.83
2023-01-04T09:03:51.655Z,29.27
2023-01-04T09:06:18.971Z,28.83
2023-01-04T09:08:46.053Z,29.80
2023-01-04T09:11:15.659Z,29.80
2023-01-04T09:13:43.441Z,27.50
2023-01-04T09:16:19.047Z,27.37
2023-01-04T09:18:46.972Z,29.87
2023-01-04T09:21:16.467Z,28.37
2023-01-04T09:23:44.652Z,27.13
2023-01-04T09:26:17.821Z,29.17
2023-01-04T09:28:45.463Z,27.73
2023-01-04T09:31:15.458Z,29.87
2023-01-04T09:34:12.860Z,29.27
2023-01-04T09:36:30.835Z,28.50
2023-01-04T09:38:57.891Z,29.60
2023-01-04T09:41:27.814Z,29.70
2023-01-04T09:43:58.343Z,32.07
2023-01-04T09:46:39.590Z,29.60
2023-01-04T09:49:35.268Z,31.30
2023-01-04T09:52:10.723Z,31.20
2023-01-04T09:54:50.065Z,27.33
2023-01-04T09:57:27.049Z,26.07
2023-01-04T10:00:02.726Z,28.30
2023-01-04T10:02:43.498Z,30.00
2023-01-04T10:05:19.103Z,29.23
2023-01-04T10:07:45.890Z,32.07
2023-01-04T10:10:20.968Z,29.80
2023-01-04T10:12:59.987Z,24.50
2023-01-04T10:15:38.931Z,26.23
2023-01-04T10:21:31.414Z,22.93
2023-01-04T10:24:33.491Z,22.37
2023-01-04T10:27:48.398Z,21.23
2023-01-04T10:30:26.907Z,27.33
2023-01-04T10:33:13.740Z,19.30
2023-01-04T10:35:44.134Z,23.30
2023-01-04T10:38:20.844Z,21.70
2023-01-04T10:40:48.760Z,89.57
2023-01-04T10:43:27.943Z,26.63
2023-01-04T10:46:02.313Z,17.63
2023-01-04T10:48:38.633Z,26.17
2023-01-04T10:51:10.209Z,21.10
2023-01-04T10:53:48.275Z,21.17
2023-01-04T10:56:33.118Z,22.57
2023-01-04T10:59:26.306Z,35.43
2023-01-04T11:02:15.431Z,28.33
2023-01-04T11:05:09.572Z,27.03
2023-01-04T11:07:52.321Z,37.47
2023-01-04T11:10:30.181Z,18.67
2023-01-04T11:12:57.305Z,20.07
2023-01-04T11:15:24.537Z,20.70
2023-01-04T11:17:52.154Z,20.07
2023-01-04T11:20:21.719Z,20.70
2023-01-04T11:23:16.529Z,27.17
2023-01-04T11:26:06.172Z,24.53
2023-01-04T11:28:44.440Z,18.33
2023-01-04T11:31:23.180Z,23.63
2023-01-04T11:34:01.644Z,20.93
2023-01-04T11:36:31.813Z,23.37
2023-01-04T11:38:59.221Z,21.20
2023-01-04T11:41:27.385Z,22.80
2023-01-04T11:43:59.911Z,18.10
2023-01-04T11:46:29.082Z,17.57
2023-01-04T11:48:56.670Z,18.43
2023-01-04T11:51:25.389Z,18.57
2023-01-04T11:54:16.624Z,19.73
2023-01-04T11:57:11.645Z,17.53
2023-01-04T11:59:39.078Z,19.33
2023-01-04T12:02:59.124Z,17.47
2023-01-04T12:05:29.096Z,16.87
2023-01-04T12:07:59.067Z,19.23
2023-01-04T12:10:27.833Z,18.70
2023-01-04T12:12:56.731Z,20.63
2023-01-04T12:15:55.920Z,16.63
2023-01-04T12:18:28.712Z,19.00
2023-01-04T12:20:56.749Z,17.73
2023-01-04T12:23:24.125Z,18.17
2023-01-04T12:25:53.651Z,18.77
2023-01-04T12:28:36.199Z,20.23
2023-01-04T12:31:27.296Z,19.43
2023-01-04T12:33:59.803Z,18.13
2023-01-04T12:36:38.855Z,19.93
2023-01-04T12:39:15.025Z,19.33
2023-01-04T12:41:43.303Z,17.73
2023-01-04T12:44:46.892Z,17.47
2023-01-04T12:47:47.737Z,16.40
2023-01-04T12:50:16.886Z,19.23
2023-01-04T12:53:11.277Z,23.07
2023-01-04T12:55:40.679Z,19.07
2023-01-04T12:58:58.204Z,25.93
2023-01-04T13:01:25.440Z,21.17
2023-01-04T13:04:04.293Z,20.63
2023-01-04T13:06:39.241Z,18.63
2023-01-04T13:09:19.738Z,18.37
2023-01-04T13:11:56.629Z,18.13
2023-01-04T13:14:54.588Z,22.73
2023-01-04T13:17:23.848Z,19.23
2023-01-04T13:19:50.955Z,19.67
2023-01-04T13:22:29.613Z,17.13
2023-01-04T13:24:59.291Z,16.67
2023-01-04T13:27:27.141Z,15.87
2023-01-04T13:29:54.536Z,18.10
2023-01-04T13:32:23.714Z,15.13
2023-01-04T13:35:03.675Z,16.77
2023-01-04T13:37:40.249Z,17.57
2023-01-04T13:40:21.638Z,18.77
2023-01-04T13:42:57.870Z,22.27
2023-01-04T13:45:30.536Z,25.43
2023-01-04T13:48:00.597Z,25.80
2023-01-04T13:50:47.395Z,23.20
2023-01-04T13:53:23.461Z,27.73
2023-01-04T13:55:56.359Z,19.33
2023-01-04T13:58:28.603Z,18.90
2023-01-04T14:01:02.365Z,19.77
2023-01-04T14:03:42.652Z,17.70
2023-01-04T14:06:09.476Z,18.80
2023-01-04T14:08:44.653Z,19.17
2023-01-04T14:11:39.322Z,19.27
2023-01-04T14:14:19.787Z,19.40
2023-01-04T14:16:47.448Z,19.47
2023-01-04T14:19:39.519Z,20.50
2023-01-04T14:22:40.307Z,20.77
2023-01-04T14:25:29.148Z,18.93
2023-01-04T14:28:30.348Z,20.77
2023-01-04T14:31:00.266Z,18.80
2023-01-04T14:33:36.629Z,17.73
2023-01-04T14:36:06.424Z,18.70
2023-01-04T14:38:44.128Z,20.57
2023-01-04T14:41:20.384Z,20.13
2023-01-04T14:43:53.406Z,18.70
2023-01-04T14:46:22.507Z,23.37
2023-01-04T14:48:49.729Z,15.03
2023-01-04T14:51:20.071Z,16.50
2023-01-04T14:53:47.046Z,14.23
2023-01-04T14:56:16.173Z,14.17
2023-01-04T14:58:43.309Z,17.43
2023-01-04T15:01:11.853Z,13.30
2023-01-04T15:03:39.453Z,12.50
2023-01-04T15:06:07.232Z,15.40
2023-01-04T15:08:34.605Z,14.77
2023-01-04T15:11:02.476Z,12.63
2023-01-04T15:13:36.775Z,13.43
2023-01-04T15:16:07.744Z,14.30
2023-01-04T15:18:34.652Z,17.87
2023-01-04T15:21:03.970Z,16.00
2023-01-04T15:23:31.012Z,13.90
2023-01-04T15:25:58.486Z,15.50
2023-01-04T15:28:26.388Z,16.03
2023-01-04T15:30:53.719Z,12.13
2023-01-04T15:33:20.573Z,12.63
2023-01-04T15:35:47.747Z,12.43
2023-01-04T15:38:18.421Z,14.37
2023-01-04T15:40:45.630Z,15.33
2023-01-04T15:43:12.435Z,15.00
2023-01-04T15:45:40.020Z,14.63
2023-01-04T15:48:09.714Z,13.63
2023-01-04T15:50:40.586Z,14.77
2023-01-04T15:53:08.437Z,14.97
2023-01-04T15:55:37.179Z,15.70
2023-01-04T15:58:05.861Z,13.73
2023-01-04T16:00:33.159Z,14.70
2023-01-04T16:03:00.114Z,15.07
2023-01-04T16:05:27.581Z,15.50
2023-01-04T16:07:54.302Z,14.37
2023-01-04T16:10:21.415Z,15.67
2023-01-04T16:12:54.670Z,15.83
2023-01-04T16:15:24.070Z,16.40
2023-01-04T16:17:51.137Z,16.03
2023-01-04T16:20:19.210Z,15.73
2023-01-04T16:22:46.231Z,16.67
2023-01-04T16:25:14.111Z,15.07
2023-01-04T16:27:41.808Z,16.03
2023-01-04T16:30:12.696Z,16.70
2023-01-04T16:32:43.564Z,14.93
2023-01-04T16:35:11.623Z,19.53
2023-01-04T16:37:39.100Z,21.03
2023-01-04T16:40:08.234Z,16.63
2023-01-04T16:42:37.347Z,16.90
2023-01-04T16:45:05.072Z,14.27
2023-01-04T16:47:41.094Z,15.00
2023-01-04T16:50:09.787Z,13.80
2023-01-04T16:52:36.755Z,13.80
2023-01-04T16:55:04.710Z,14.70
2023-01-04T16:57:31.594Z,13.07
2023-01-04T16:59:58.612Z,13.83
2023-01-04T17:02:25.660Z,14.07
2023-01-04T17:04:59.552Z,13.93
2023-01-04T17:07:33.137Z,14.10
2023-01-04T17:10:01.236Z,12.43
2023-01-04T17:15:42.553Z,12.07
2023-01-04T17:18:03.278Z,11.43
2023-01-04T17:20:30.333Z,13.00
2023-01-04T17:22:57.121Z,12.93
2023-01-04T17:25:24.248Z,12.00
2023-01-04T17:27:51.018Z,11.90
2023-01-04T17:30:18.175Z,12.00
2023-01-04T17:32:44.893Z,12.77
2023-01-04T17:35:11.910Z,12.23
2023-01-04T17:37:38.614Z,12.67
2023-01-04T17:40:06.249Z,12.50
2023-01-04T17:42:33.430Z,12.73
2023-01-04T17:45:00.542Z,12.70
2023-01-04T17:47:27.759Z,13.30
2023-01-04T17:49:54.806Z,12.70
2023-01-04T17:52:28.996Z,12.10
2023-01-04T17:54:57.932Z,13.10
2023-01-04T17:57:24.804Z,12.80
2023-01-04T17:59:51.976Z,11.90
2023-01-04T18:02:18.817Z,12.40
2023-01-04T18:04:46.419Z,13.00
2023-01-04T18:07:13.363Z,13.53
2023-01-04T18:09:40.609Z,11.90
2023-01-04T18:12:07.445Z,12.37
2023-01-04T18:14:34.451Z,12.20
2023-01-04T18:17:01.302Z,11.60
2023-01-04T18:19:30.257Z,11.53
2023-01-04T18:21:57.960Z,11.93
2023-01-04T18:24:35.955Z,11.00
2023-01-04T18:29:51.928Z,11.03
2023-01-04T18:32:19.218Z,11.63
2023-01-04T18:34:46.279Z,11.23
2023-01-04T18:37:14.139Z,10.50
2023-01-04T18:39:41.505Z,11.40
2023-01-04T18:42:08.234Z,11.17
2023-01-04T18:44:35.967Z,11.20
2023-01-04T18:47:04.005Z,11.93
2023-01-04T18:49:31.209Z,10.77
2023-01-04T18:51:57.940Z,10.87
2023-01-04T18:54:24.999Z,11.23
2023-01-04T18:56:58.699Z,11.67
2023-01-04T18:59:29.103Z,12.27
2023-01-04T19:02:00.914Z,10.90
2023-01-04T19:04:34.720Z,12.40
2023-01-04T19:07:02.098Z,11.83
2023-01-04T19:09:29.510Z,11.37
2023-01-04T19:11:56.350Z,11.50
2023-01-04T19:14:23.470Z,12.87
2023-01-04T19:16:53.191Z,12.20
2023-01-04T19:19:20.680Z,12.30
2023-01-04T19:21:47.649Z,13.17
2023-01-04T19:24:14.643Z,12.87
2023-01-04T19:26:41.432Z,13.77
2023-01-04T19:29:08.911Z,13.80
2023-01-04T19:31:36.021Z,14.93
2023-01-04T19:34:03.651Z,15.03
2023-01-04T19:36:30.434Z,15.07
2023-01-04T19:38:58.140Z,15.93
2023-01-04T19:41:33.457Z,16.57
2023-01-04T19:44:02.593Z,16.73
2023-01-04T19:46:30.481Z,16.63
2023-01-04T19:48:58.005Z,18.10
2023-01-04T19:51:24.893Z,16.93
2023-01-04T19:53:52.173Z,18.30
2023-01-04T19:56:18.936Z,16.93
2023-01-04T19:58:46.387Z,18.23
2023-01-04T20:01:15.173Z,17.37
2023-01-04T20:03:42.997Z,17.33
2023-01-04T20:06:10.872Z,18.17
2023-01-04T20:08:38.954Z,18.67
2023-01-04T20:11:06.634Z,16.70
2023-01-04T20:13:34.479Z,15.80
2023-01-04T20:16:04.817Z,16.27
2023-01-04T20:18:33.218Z,16.67
2023-01-04T20:21:00.038Z,16.23
2023-01-04T20:23:27.136Z,16.60
2023-01-04T20:25:54.790Z,15.27
2023-01-04T20:28:24.389Z,15.13
2023-01-04T20:31:05.507Z,14.37
2023-01-04T20:33:32.789Z,14.10
2023-01-04T20:36:09.039Z,14.23
2023-01-04T20:38:40.622Z,14.90
2023-01-04T20:41:10.827Z,13.50
2023-01-04T20:43:38.866Z,12.40
2023-01-04T20:46:13.003Z,13.67
2023-01-04T20:48:40.813Z,13.90
2023-01-04T20:51:11.137Z,13.13
2023-01-04T20:53:39.469Z,14.13
2023-01-04T20:56:13.540Z,13.80
2023-01-04T20:58:40.838Z,13.00
2023-01-04T21:01:08.694Z,13.27
2023-01-04T21:03:36.415Z,13.20
2023-01-04T21:06:07.142Z,12.33
2023-01-04T21:08:36.405Z,12.93
2023-01-04T21:11:03.831Z,13.43
2023-01-04T21:13:30.948Z,13.17
2023-01-04T21:15:57.755Z,12.03
2023-01-04T21:18:25.603Z,13.77
2023-01-04T21:20:53.042Z,13.67
2023-01-04T21:23:22.968Z,12.87
2023-01-04T21:25:50.452Z,14.00
2023-01-04T21:28:19.572Z,12.70
2023-01-04T21:30:47.711Z,12.97
2023-01-04T21:33:16.545Z,12.67
2023-01-04T21:35:43.361Z,12.43
2023-01-04T21:38:11.413Z,12.40
2023-01-04T21:40:41.743Z,11.27
2023-01-04T21:43:15.911Z,10.80
2023-01-04T21:45:42.947Z,11.53
2023-01-04T21:48:09.984Z,10.13
2023-01-04T21:50:37.125Z,9.70
2023-01-04T21:53:04.181Z,10.37
2023-01-04T21:55:34.584Z,9.43
2023-01-04T21:58:02.864Z,10.43
2023-01-04T22:00:29.817Z,9.53
2023-01-04T22:02:56.959Z,9.20
2023-01-04T22:05:23.775Z,8.70
2023-01-04T22:07:50.844Z,9.63
2023-01-04T22:10:17.598Z,8.63
2023-01-04T22:12:45.053Z,7.70
2023-01-04T22:15:11.915Z,8.13
2023-01-04T22:17:39.035Z,8.70
2023-01-04T22:20:06.368Z,9.00
2023-01-04T22:22:33.391Z,8.33
2023-01-04T22:25:00.305Z,8.10
2023-01-04T22:27:27.362Z,7.13
2023-01-04T22:29:56.256Z,7.57
2023-01-04T22:32:23.262Z,7.50
2023-01-04T22:34:50.232Z,7.43
2023-01-04T22:37:17.448Z,7.53
2023-01-04T22:39:44.243Z,8.00
2023-01-04T22:42:11.219Z,7.13
2023-01-04T22:44:37.938Z,6.97
2023-01-04T22:47:05.207Z,6.20
2023-01-04T22:49:32.120Z,6.67
2023-01-04T22:51:59.183Z,6.87
2023-01-04T22:54:26.220Z,6.87
2023-01-04T22:56:53.219Z,6.57
2023-01-04T22:59:20.014Z,6.23
2023-01-04T23:01:47.174Z,5.90
2023-01-04T23:04:16.794Z,6.17
2023-01-04T23:06:44.061Z,5.73
2023-01-04T23:09:14.247Z,5.20
2023-01-04T23:11:42.873Z,5.40
2023-01-04T23:14:13.519Z,5.60
2023-01-04T23:16:41.013Z,5.50
2023-01-04T23:19:08.059Z,5.30
2023-01-04T23:21:35.623Z,5.30
2023-01-04T23:24:03.127Z,4.77
2023-01-04T23:26:31.848Z,4.70
2023-01-04T23:29:00.053Z,4.20
2023-01-04T23:31:30.754Z,3.63
2023-01-04T23:33:59.925Z,4.20
2023-01-04T23:36:29.903Z,2.77
2023-01-04T23:38:59.547Z,2.73
2023-01-04T23:41:46.521Z,2.33
2023-01-04T23:44:15.015Z,2.30
2023-01-04T23:46:42.863Z,1.67
2023-01-04T23:49:10.699Z,1.10
2023-01-04T23:51:37.845Z,1.10
2023-01-04T23:54:05.935Z,1.00
2023-01-04T23:56:32.992Z,0.77
2023-01-04T23:58:59.854Z,0.80
